Gopher, South Dakota
Current Conditions -  °F | °C
As of 10:52 PM on Friday 31 Oct 2014 (Local Time) from KMBG Reporting Station
Clear Clear  
Wind Chill: 27°   Ceiling: Unl
Heat Index: 39°   Visibility: 10mi
Dew Point: 18°   Wind: 29mph
Humidity: 43%   Direction: 160°SSE
Pressure: 30.11"   Gusts: 40mph
Location:  45.5528°N, 100.336°W
Report Text: KMBG 010352Z AUTO 16025G35KT 10SM CLR 04/M08 A3011 RMK AO2 PK WND 15035/0345 SLP213 T00391078
Loading
Personal Weather Stations






























Interactive Weather Map
Tropical Storm Tracking
New forecast layout! Learn more

10-Day Weather Forecast

Advertisements
Track Severe Weather on mobile